createdAt,value
2023-04-02T00:01:23.747Z,2.70
2023-04-02T00:04:16.567Z,2.00
2023-04-02T00:06:49.367Z,2.10
2023-04-02T00:09:33.853Z,2.50
2023-04-02T00:12:17.822Z,2.10
2023-04-02T00:14:55.498Z,2.70
2023-04-02T00:17:27.894Z,2.30
2023-04-02T00:20:06.636Z,2.10
2023-04-02T00:22:47.119Z,2.60
2023-04-02T00:25:18.765Z,2.30
2023-04-02T00:27:50.012Z,2.30
2023-04-02T00:30:22.049Z,2.30
2023-04-02T00:32:57.355Z,2.10
2023-04-02T00:35:31.124Z,2.10
2023-04-02T00:38:03.540Z,2.20
2023-04-02T00:40:35.128Z,2.40
2023-04-02T00:43:16.788Z,2.30
2023-04-02T00:45:55.321Z,2.30
2023-04-02T00:48:43.859Z,2.80
2023-04-02T00:51:21.158Z,2.70
2023-04-02T00:53:54.720Z,2.60
2023-04-02T00:56:30.891Z,2.40
2023-04-02T00:59:03.622Z,2.30
2023-04-02T01:01:42.971Z,2.20
2023-04-02T01:04:32.823Z,2.20
2023-04-02T01:07:07.665Z,2.20
2023-04-02T01:09:56.454Z,2.30
2023-04-02T01:12:41.235Z,2.50
2023-04-02T01:15:19.467Z,2.00
2023-04-02T01:18:10.130Z,2.50
2023-04-02T01:21:11.889Z,2.00
2023-04-02T01:23:54.466Z,2.50
2023-04-02T01:26:38.275Z,2.30
2023-04-02T01:29:14.174Z,2.10
2023-04-02T01:31:47.904Z,2.30
2023-04-02T01:34:25.076Z,2.00
2023-04-02T01:37:22.401Z,2.10
2023-04-02T01:40:08.125Z,1.90
2023-04-02T01:42:46.238Z,1.90
2023-04-02T01:45:21.944Z,1.80
2023-04-02T01:47:53.928Z,2.00
2023-04-02T01:50:34.008Z,2.70
2023-04-02T01:53:08.323Z,2.40
2023-04-02T01:55:44.321Z,1.90
2023-04-02T01:58:19.892Z,2.20
2023-04-02T02:00:57.658Z,2.10
2023-04-02T02:03:29.850Z,2.40
2023-04-02T02:06:03.494Z,2.50
2023-04-02T02:08:40.011Z,2.20
2023-04-02T02:11:19.555Z,2.80
2023-04-02T02:13:52.334Z,2.30
2023-04-02T02:16:24.454Z,1.80
2023-04-02T02:18:59.228Z,2.30
2023-04-02T02:21:39.980Z,2.40
2023-04-02T02:24:20.661Z,2.40
2023-04-02T02:26:56.987Z,2.20
2023-04-02T02:29:32.205Z,2.30
2023-04-02T02:32:04.639Z,2.10
2023-04-02T02:34:41.970Z,2.00
2023-04-02T02:37:17.825Z,2.30
2023-04-02T02:39:52.894Z,2.20
2023-04-02T02:42:32.668Z,2.30
2023-04-02T02:45:07.934Z,2.50
2023-04-02T02:47:43.541Z,2.30
2023-04-02T02:50:22.133Z,2.40
2023-04-02T02:52:57.179Z,2.50
2023-04-02T02:55:34.559Z,2.40
2023-04-02T02:58:19.558Z,2.50
2023-04-02T03:01:01.703Z,2.30
2023-04-02T03:03:35.968Z,2.30
2023-04-02T03:06:12.272Z,2.50
2023-04-02T03:08:49.212Z,2.10
2023-04-02T03:11:30.814Z,2.10
2023-04-02T03:14:11.791Z,2.90
2023-04-02T03:16:48.040Z,2.70
2023-04-02T03:19:29.909Z,2.10
2023-04-02T03:22:08.292Z,2.30
2023-04-02T03:24:49.340Z,2.40
2023-04-02T03:27:25.464Z,1.90
2023-04-02T03:30:06.940Z,1.90
2023-04-02T03:32:42.845Z,2.10
2023-04-02T03:35:25.022Z,2.00
2023-04-02T03:38:02.083Z,2.10
2023-04-02T03:40:40.243Z,1.80
2023-04-02T03:43:22.140Z,2.30
2023-04-02T03:45:58.838Z,2.30
2023-04-02T03:48:39.665Z,1.60
2023-04-02T03:51:19.337Z,2.10
2023-04-02T03:53:52.232Z,2.10
2023-04-02T03:56:31.624Z,2.10
2023-04-02T03:59:16.230Z,2.00
2023-04-02T04:01:54.947Z,2.20
2023-04-02T04:04:30.651Z,2.10
2023-04-02T04:07:04.182Z,1.70
2023-04-02T04:09:38.563Z,5.00
2023-04-02T04:12:24.092Z,2.90
2023-04-02T04:15:01.663Z,2.00
2023-04-02T04:17:51.744Z,2.10
2023-04-02T04:20:29.350Z,1.90
2023-04-02T04:23:11.957Z,2.10
2023-04-02T04:25:44.442Z,1.80
2023-04-02T04:28:29.606Z,2.30
2023-04-02T04:31:07.353Z,2.20
2023-04-02T04:33:46.570Z,2.20
2023-04-02T04:36:28.938Z,1.80
2023-04-02T04:39:21.732Z,1.80
2023-04-02T04:41:56.224Z,1.90
2023-04-02T04:44:35.269Z,1.90
2023-04-02T04:47:13.533Z,2.00
2023-04-02T04:49:48.974Z,2.10
2023-04-02T04:52:23.548Z,2.00
2023-04-02T04:54:55.621Z,2.30
2023-04-02T04:57:37.819Z,2.00
2023-04-02T05:00:21.064Z,1.90
2023-04-02T05:03:03.593Z,2.00
2023-04-02T05:05:40.978Z,1.70
2023-04-02T05:08:20.736Z,2.30
2023-04-02T05:10:58.499Z,2.10
2023-04-02T05:13:35.527Z,1.80
2023-04-02T05:16:17.628Z,2.20
2023-04-02T05:18:59.312Z,1.70
2023-04-02T05:21:39.259Z,1.40
2023-04-02T05:24:35.400Z,1.80
2023-04-02T05:27:20.323Z,1.70
2023-04-02T05:29:59.238Z,2.40
2023-04-02T05:32:38.088Z,2.10
2023-04-02T05:35:18.621Z,2.10
2023-04-02T05:37:51.426Z,2.00
2023-04-02T05:40:32.504Z,2.00
2023-04-02T05:43:09.087Z,1.50
2023-04-02T05:45:46.607Z,1.70
2023-04-02T05:48:21.871Z,1.90
2023-04-02T05:50:55.927Z,1.70
2023-04-02T05:53:35.737Z,1.80
2023-04-02T05:56:14.331Z,2.10
2023-04-02T05:58:50.796Z,1.70
2023-04-02T06:01:38.327Z,1.90
2023-04-02T06:04:24.040Z,1.80
2023-04-02T06:07:03.119Z,1.70
2023-04-02T06:09:42.832Z,1.80
2023-04-02T06:12:20.593Z,1.60
2023-04-02T06:14:52.615Z,1.60
2023-04-02T06:17:24.888Z,1.80
2023-04-02T06:19:59.297Z,1.60
2023-04-02T06:22:42.019Z,1.60
2023-04-02T06:25:19.574Z,1.50
2023-04-02T06:27:53.141Z,1.60
2023-04-02T06:30:32.404Z,1.90
2023-04-02T06:33:05.042Z,1.50
2023-04-02T06:35:41.649Z,1.30
2023-04-02T06:38:21.801Z,1.50
2023-04-02T06:40:57.587Z,1.60
2023-04-02T06:44:03.300Z,1.60
2023-04-02T06:47:01.038Z,1.50
2023-04-02T06:49:39.831Z,1.50
2023-04-02T06:52:19.570Z,1.30
2023-04-02T06:54:51.465Z,1.90
2023-04-02T06:57:23.146Z,1.80
2023-04-02T06:59:55.908Z,1.50
2023-04-02T07:02:35.051Z,1.70
2023-04-02T07:05:12.406Z,1.70
2023-04-02T07:07:48.986Z,1.90
2023-04-02T07:10:21.867Z,2.10
2023-04-02T07:12:53.523Z,2.30
2023-04-02T07:15:26.952Z,1.70
2023-04-02T07:17:59.521Z,1.80
2023-04-02T07:20:34.253Z,1.90
2023-04-02T07:23:10.580Z,1.60
2023-04-02T07:25:42.081Z,1.90
2023-04-02T07:28:14.357Z,2.10
2023-04-02T07:30:46.558Z,2.10
2023-04-02T07:33:19.763Z,1.80
2023-04-02T07:35:52.423Z,1.80
2023-04-02T07:38:23.843Z,1.60
2023-04-02T07:40:55.308Z,1.90
2023-04-02T07:43:27.031Z,1.60
2023-04-02T07:45:58.774Z,1.40
2023-04-02T07:48:30.418Z,1.40
2023-04-02T07:51:03.331Z,1.40
2023-04-02T07:53:38.072Z,1.40
2023-04-02T07:56:10.126Z,1.40
2023-04-02T07:58:43.502Z,1.30
2023-04-02T08:01:21.086Z,1.50
2023-04-02T08:03:54.402Z,1.30
2023-04-02T08:06:27.730Z,1.50
2023-04-02T08:08:59.061Z,1.40
2023-04-02T08:11:31.810Z,1.20
2023-04-02T08:14:03.903Z,1.30
2023-04-02T08:16:49.295Z,1.20
2023-04-02T08:19:21.181Z,1.50
2023-04-02T08:21:54.029Z,1.40
2023-04-02T08:24:26.097Z,1.30
2023-04-02T08:26:57.956Z,1.50
2023-04-02T08:29:32.460Z,1.40
2023-04-02T08:32:04.236Z,1.90
2023-04-02T08:34:35.775Z,1.70
2023-04-02T08:37:08.037Z,2.00
2023-04-02T08:39:39.905Z,2.00
2023-04-02T08:42:30.856Z,1.90
2023-04-02T08:45:24.947Z,1.70
2023-04-02T08:48:00.169Z,1.50
2023-04-02T08:50:35.627Z,1.70
2023-04-02T08:53:13.877Z,1.30
2023-04-02T08:55:56.010Z,1.60
2023-04-02T08:58:41.601Z,1.90
2023-04-02T09:01:24.965Z,1.70
2023-04-02T09:04:00.835Z,1.70
2023-04-02T09:06:33.697Z,1.70
2023-04-02T09:09:05.237Z,1.70
2023-04-02T09:11:44.294Z,1.70
2023-04-02T09:14:20.915Z,2.10
2023-04-02T09:16:55.547Z,1.70
2023-04-02T09:19:33.822Z,2.00
2023-04-02T09:22:10.491Z,1.80
2023-04-02T09:24:41.754Z,1.90
2023-04-02T09:27:21.939Z,1.70
2023-04-02T09:30:00.991Z,1.50
2023-04-02T09:32:45.841Z,2.00
2023-04-02T09:35:26.058Z,1.90
2023-04-02T09:38:32.028Z,1.60
2023-04-02T09:41:05.345Z,2.10
2023-04-02T09:43:38.350Z,1.90
2023-04-02T09:46:27.074Z,1.70
2023-04-02T09:49:02.178Z,1.80
2023-04-02T09:51:36.696Z,1.60
2023-04-02T09:54:17.180Z,1.60
2023-04-02T09:57:03.633Z,1.40
2023-04-02T09:59:35.462Z,1.50
2023-04-02T10:02:25.490Z,1.40
2023-04-02T10:04:56.670Z,1.60
2023-04-02T10:07:41.495Z,1.60
2023-04-02T10:10:25.256Z,1.60
2023-04-02T10:13:03.890Z,1.80
2023-04-02T10:15:39.741Z,2.20
2023-04-02T10:18:18.269Z,2.20
2023-04-02T10:20:52.470Z,2.40
2023-04-02T10:23:29.873Z,2.40
2023-04-02T10:26:13.644Z,2.80
2023-04-02T10:28:58.146Z,2.60
2023-04-02T10:31:35.847Z,2.80
2023-04-02T10:34:17.980Z,3.00
2023-04-02T10:36:54.463Z,2.30
2023-04-02T10:39:32.525Z,2.50
2023-04-02T10:42:11.932Z,2.60
2023-04-02T10:44:52.252Z,2.50
2023-04-02T10:47:35.800Z,2.60
2023-04-02T10:50:24.653Z,2.70
2023-04-02T10:53:03.774Z,2.80
2023-04-02T10:55:43.478Z,2.70
2023-04-02T10:58:24.593Z,2.60
2023-04-02T11:01:01.003Z,2.60
2023-04-02T11:03:37.102Z,2.60
2023-04-02T11:06:18.933Z,2.60
2023-04-02T11:08:53.561Z,2.20
2023-04-02T11:11:28.459Z,2.80
2023-04-02T11:14:03.498Z,2.50
2023-04-02T11:16:37.630Z,2.60
2023-04-02T11:19:28.608Z,2.40
2023-04-02T11:22:02.104Z,2.60
2023-04-02T11:24:46.632Z,2.30
2023-04-02T11:27:26.300Z,3.50
2023-04-02T11:30:07.641Z,2.80
2023-04-02T11:32:42.691Z,2.50
2023-04-02T11:35:39.248Z,2.50
2023-04-02T11:38:39.532Z,2.60
2023-04-02T11:41:11.186Z,2.60
2023-04-02T11:44:00.872Z,2.90
2023-04-02T11:46:46.659Z,2.60
2023-04-02T11:49:41.359Z,2.30
2023-04-02T11:52:30.861Z,2.30
2023-04-02T11:55:06.113Z,2.20
2023-04-02T11:57:52.227Z,2.30
2023-04-02T12:00:44.234Z,2.60
2023-04-02T12:03:32.602Z,2.50
2023-04-02T12:06:15.439Z,2.60
2023-04-02T12:08:59.197Z,2.10
2023-04-02T12:11:37.270Z,2.10
2023-04-02T12:14:47.563Z,2.20
2023-04-02T12:17:27.550Z,2.10
2023-04-02T12:20:01.646Z,2.10
2023-04-02T12:22:35.871Z,2.30
2023-04-02T12:25:23.313Z,2.10
2023-04-02T12:28:07.885Z,2.10
2023-04-02T12:30:39.920Z,2.50
2023-04-02T12:33:37.554Z,2.00
2023-04-02T12:36:19.758Z,1.80
2023-04-02T12:38:53.857Z,2.10
2023-04-02T12:41:30.288Z,2.00
2023-04-02T12:44:03.559Z,2.10
2023-04-02T12:46:36.843Z,2.30
2023-04-02T12:49:12.685Z,2.10
2023-04-02T12:51:44.573Z,1.90
2023-04-02T12:54:19.940Z,2.20
2023-04-02T12:56:52.203Z,2.00
2023-04-02T12:59:39.395Z,2.20
2023-04-02T13:02:22.458Z,1.80
2023-04-02T13:04:57.299Z,1.60
2023-04-02T13:07:31.129Z,2.00
2023-04-02T13:10:06.053Z,1.90
2023-04-02T13:12:39.703Z,1.60
2023-04-02T13:15:23.521Z,2.00
2023-04-02T13:18:19.147Z,2.10
2023-04-02T13:21:00.188Z,1.70
2023-04-02T13:23:39.125Z,1.70
2023-04-02T13:26:19.729Z,1.90
2023-04-02T13:29:01.723Z,1.70
2023-04-02T13:31:34.364Z,1.80
2023-04-02T13:34:05.847Z,2.20
2023-04-02T13:36:37.592Z,1.90
2023-04-02T13:39:09.346Z,1.70
2023-04-02T13:41:44.483Z,1.90
2023-04-02T13:44:23.578Z,1.90
2023-04-02T13:46:56.833Z,1.80
2023-04-02T13:49:29.539Z,2.30
2023-04-02T13:52:05.138Z,1.80
2023-04-02T13:54:42.746Z,1.70
2023-04-02T13:57:14.565Z,1.70
2023-04-02T13:59:46.052Z,1.70
2023-04-02T14:02:21.628Z,1.50
2023-04-02T14:05:01.135Z,1.60
2023-04-02T14:07:48.476Z,1.60
2023-04-02T14:10:31.920Z,1.90
2023-04-02T14:13:15.436Z,1.80
2023-04-02T14:16:13.032Z,1.80
2023-04-02T14:19:06.892Z,1.50
2023-04-02T14:21:52.476Z,1.50
2023-04-02T14:24:33.329Z,1.80
2023-04-02T14:27:19.964Z,1.80
2023-04-02T14:29:59.073Z,1.50
2023-04-02T14:32:38.088Z,1.80
2023-04-02T14:35:21.365Z,1.90
2023-04-02T14:38:01.456Z,1.80
2023-04-02T14:40:39.538Z,2.00
2023-04-02T14:43:18.350Z,1.60
2023-04-02T14:45:59.599Z,2.00
2023-04-02T14:48:42.959Z,1.60
2023-04-02T14:51:23.319Z,2.30
2023-04-02T14:54:03.203Z,1.90
2023-04-02T14:56:40.145Z,1.90
2023-04-02T14:59:23.060Z,1.60
2023-04-02T15:02:00.230Z,1.70
2023-04-02T15:04:37.414Z,1.70
2023-04-02T15:07:19.570Z,2.00
2023-04-02T15:09:56.518Z,2.30
2023-04-02T15:12:32.334Z,2.20
2023-04-02T15:15:10.571Z,1.90
2023-04-02T15:17:42.119Z,1.90
2023-04-02T15:20:17.652Z,1.70
2023-04-02T15:23:03.494Z,1.60
2023-04-02T15:25:40.628Z,1.60
2023-04-02T15:28:26.421Z,2.00
2023-04-02T15:31:01.656Z,1.90
2023-04-02T15:33:42.692Z,1.60
2023-04-02T15:36:38.439Z,1.80
2023-04-02T15:39:25.780Z,1.70
2023-04-02T15:42:05.811Z,1.70
2023-04-02T15:44:44.646Z,1.80
2023-04-02T15:47:27.600Z,1.90
2023-04-02T15:50:08.472Z,1.50
2023-04-02T15:52:47.463Z,1.60
2023-04-02T15:55:28.157Z,1.80
2023-04-02T15:58:20.926Z,1.50
2023-04-02T16:01:03.667Z,1.70
2023-04-02T16:03:56.426Z,1.40
2023-04-02T16:06:36.310Z,1.60
2023-04-02T16:09:16.802Z,1.70
2023-04-02T16:11:48.363Z,1.50
2023-04-02T16:14:29.030Z,1.60
2023-04-02T16:17:17.637Z,1.10
2023-04-02T16:20:02.075Z,1.00
2023-04-02T16:22:35.755Z,0.90
2023-04-02T16:25:19.457Z,1.50
2023-04-02T16:28:00.963Z,1.30
2023-04-02T16:30:52.404Z,1.00
2023-04-02T16:33:46.974Z,1.10
2023-04-02T16:36:28.854Z,1.20
2023-04-02T16:39:05.512Z,1.20
2023-04-02T16:41:54.994Z,1.10
2023-04-02T16:44:37.174Z,1.20
2023-04-02T16:47:26.694Z,1.30
2023-04-02T16:50:03.698Z,1.20
2023-04-02T16:52:45.541Z,1.20
2023-04-02T16:55:32.775Z,1.20
2023-04-02T16:58:15.881Z,1.20
2023-04-02T17:00:51.834Z,1.00
2023-04-02T17:03:44.573Z,0.80
2023-04-02T17:06:30.942Z,1.10
2023-04-02T17:09:09.719Z,1.10
2023-04-02T17:11:46.618Z,1.10
2023-04-02T17:14:26.447Z,1.10
2023-04-02T17:17:03.667Z,1.10
2023-04-02T17:19:35.893Z,1.30
2023-04-02T17:22:08.349Z,1.30
2023-04-02T17:24:44.256Z,1.30
2023-04-02T17:27:23.509Z,1.40
2023-04-02T17:30:01.521Z,1.20
2023-04-02T17:32:34.425Z,1.20
2023-04-02T17:35:20.065Z,1.00
2023-04-02T17:37:56.636Z,1.10
2023-04-02T17:40:36.292Z,1.10
2023-04-02T17:43:15.103Z,1.10
2023-04-02T17:45:52.924Z,1.30
2023-04-02T17:48:31.731Z,1.20
2023-04-02T17:51:16.501Z,1.10
2023-04-02T17:54:00.123Z,0.90
2023-04-02T17:56:57.988Z,1.00
2023-04-02T17:59:45.970Z,1.10
2023-04-02T18:02:43.675Z,1.10
2023-04-02T18:05:25.297Z,1.20
2023-04-02T18:08:05.002Z,1.40
2023-04-02T18:10:42.101Z,1.20
2023-04-02T18:13:22.410Z,1.50
2023-04-02T18:16:05.651Z,1.50
2023-04-02T18:18:57.100Z,1.40
2023-04-02T18:21:34.172Z,1.40
2023-04-02T18:24:29.795Z,1.40
2023-04-02T18:27:17.858Z,1.50
2023-04-02T18:29:55.754Z,1.70
2023-04-02T18:32:56.663Z,1.50
2023-04-02T18:35:33.176Z,1.60
2023-04-02T18:38:17.088Z,1.40
2023-04-02T18:41:05.927Z,1.50
2023-04-02T18:43:50.503Z,1.40
2023-04-02T18:46:36.288Z,1.50
2023-04-02T18:49:19.667Z,1.80
2023-04-02T18:51:56.241Z,1.70
2023-04-02T18:54:32.274Z,1.80
2023-04-02T18:57:10.707Z,1.90
2023-04-02T18:59:48.186Z,1.80
2023-04-02T19:02:41.882Z,1.80
2023-04-02T19:05:24.115Z,1.80
2023-04-02T19:08:03.797Z,2.00
2023-04-02T19:10:38.772Z,1.80
2023-04-02T19:13:16.461Z,1.60
2023-04-02T19:16:26.457Z,1.60
2023-04-02T19:19:12.846Z,1.60
2023-04-02T19:21:56.530Z,1.70
2023-04-02T19:24:39.921Z,1.90
2023-04-02T19:27:21.295Z,2.60
2023-04-02T19:30:03.249Z,2.10
2023-04-02T19:32:45.541Z,2.00
2023-04-02T19:35:22.806Z,3.10
2023-04-02T19:38:05.972Z,6.00
2023-04-02T19:40:44.832Z,4.80
2023-04-02T19:43:16.028Z,3.60
2023-04-02T19:45:49.809Z,2.40
2023-04-02T19:48:24.112Z,2.00
2023-04-02T19:50:55.816Z,2.20
2023-04-02T19:53:27.068Z,2.20
2023-04-02T19:55:58.839Z,2.40
2023-04-02T19:58:32.447Z,2.40
2023-04-02T20:01:04.791Z,3.00
2023-04-02T20:03:36.714Z,3.20
2023-04-02T20:06:08.326Z,3.10
2023-04-02T20:08:40.504Z,3.00
2023-04-02T20:11:12.040Z,2.60
2023-04-02T20:13:43.386Z,2.20
2023-04-02T20:16:14.713Z,2.30
2023-04-02T20:18:46.343Z,2.10
2023-04-02T20:21:17.956Z,2.20
2023-04-02T20:23:49.405Z,2.10
2023-04-02T20:26:22.847Z,2.20
2023-04-02T20:28:54.231Z,1.90
2023-04-02T20:31:25.766Z,2.00
2023-04-02T20:34:13.073Z,2.30
2023-04-02T20:36:45.653Z,2.10
2023-04-02T20:39:19.535Z,1.90
2023-04-02T20:41:50.825Z,2.00
2023-04-02T20:44:22.592Z,1.80
2023-04-02T20:46:53.899Z,1.60
2023-04-02T20:49:25.891Z,1.80
2023-04-02T20:51:57.496Z,1.80
2023-04-02T20:54:29.190Z,1.70
2023-04-02T20:57:00.793Z,1.70
2023-04-02T20:59:32.151Z,1.70
2023-04-02T21:02:03.836Z,1.50
2023-04-02T21:04:34.861Z,1.60
2023-04-02T21:07:07.282Z,1.80
2023-04-02T21:09:38.785Z,1.90
2023-04-02T21:12:11.732Z,1.80
2023-04-02T21:14:43.003Z,1.60
2023-04-02T21:17:14.506Z,1.60
2023-04-02T21:19:45.716Z,1.80
2023-04-02T21:22:17.358Z,1.60
2023-04-02T21:24:48.999Z,1.50
2023-04-02T21:27:22.502Z,1.60
2023-04-02T21:29:54.090Z,1.60
2023-04-02T21:32:25.423Z,1.70
2023-04-02T21:34:57.250Z,1.70
2023-04-02T21:37:29.035Z,1.60
2023-04-02T21:40:00.809Z,2.00
2023-04-02T21:42:32.109Z,1.90
2023-04-02T21:45:03.997Z,1.60
2023-04-02T21:47:35.249Z,1.90
2023-04-02T21:50:08.238Z,1.70
2023-04-02T21:52:39.578Z,1.80
2023-04-02T21:55:12.923Z,1.90
2023-04-02T21:57:44.340Z,1.80
2023-04-02T22:00:18.228Z,1.90
2023-04-02T22:02:49.906Z,1.50
2023-04-02T22:05:21.778Z,1.70
2023-04-02T22:07:54.467Z,1.80
2023-04-02T22:10:26.396Z,1.60
2023-04-02T22:12:58.146Z,1.60
2023-04-02T22:15:34.571Z,1.60
2023-04-02T22:18:07.903Z,1.40
2023-04-02T22:20:42.695Z,1.50
2023-04-02T22:23:15.184Z,1.70
2023-04-02T22:25:47.872Z,1.50
2023-04-02T22:28:19.851Z,1.50
2023-04-02T22:30:52.102Z,1.60
2023-04-02T22:33:23.676Z,1.60
2023-04-02T22:35:55.463Z,1.70
2023-04-02T22:38:28.120Z,1.60
2023-04-02T22:41:09.136Z,1.40
2023-04-02T22:43:45.865Z,1.40
2023-04-02T22:46:19.501Z,1.70
2023-04-02T22:48:52.078Z,1.70
2023-04-02T22:51:24.941Z,1.70
2023-04-02T22:53:58.113Z,1.50
2023-04-02T22:56:33.277Z,1.70
2023-04-02T22:59:04.890Z,1.70
2023-04-02T23:01:37.906Z,1.60
2023-04-02T23:04:10.726Z,1.60
2023-04-02T23:06:42.515Z,1.60
2023-04-02T23:09:14.849Z,1.30
2023-04-02T23:11:46.188Z,1.30
2023-04-02T23:14:17.628Z,1.40
2023-04-02T23:16:48.975Z,1.50
2023-04-02T23:19:20.838Z,1.20
2023-04-02T23:21:52.801Z,1.30
2023-04-02T23:24:24.427Z,1.20
2023-04-02T23:26:55.916Z,1.20
2023-04-02T23:29:27.861Z,1.20
2023-04-02T23:31:59.533Z,1.00
2023-04-02T23:34:30.664Z,1.10
2023-04-02T23:37:02.136Z,1.20
2023-04-02T23:39:33.789Z,1.40
2023-04-02T23:42:05.269Z,1.30
2023-04-02T23:44:37.415Z,1.30
2023-04-02T23:47:10.041Z,1.30
2023-04-02T23:49:47.562Z,1.20
2023-04-02T23:52:20.653Z,1.40
2023-04-02T23:54:52.047Z,1.10
2023-04-02T23:57:23.568Z,1.30
2023-04-02T23:59:54.951Z,1.70
